createdAt,value
2019-02-23T00:00:43.662Z,2.50
2019-02-23T00:03:13.249Z,2.50
2019-02-23T00:05:41.149Z,2.50
2019-02-23T00:08:08.796Z,2.50
2019-02-23T00:10:55.876Z,2.40
2019-02-23T00:13:23.535Z,2.40
2019-02-23T00:15:51.050Z,2.40
2019-02-23T00:18:18.667Z,2.50
2019-02-23T00:20:46.209Z,2.40
2019-02-23T00:23:14.561Z,2.40
2019-02-23T00:25:42.138Z,2.40
2019-02-23T00:28:09.741Z,2.40
2019-02-23T00:30:37.319Z,2.40
2019-02-23T00:33:06.009Z,2.30
2019-02-23T00:35:33.956Z,2.30
2019-02-23T00:38:03.656Z,2.30
2019-02-23T00:40:31.473Z,2.30
2019-02-23T00:42:59.791Z,2.30
2019-02-23T00:45:27.433Z,2.30
2019-02-23T00:47:55.006Z,2.20
2019-02-23T00:50:22.558Z,2.20
2019-02-23T00:52:50.231Z,2.20
2019-02-23T00:55:17.791Z,2.20
2019-02-23T00:57:45.390Z,2.20
2019-02-23T01:00:13.170Z,2.20
2019-02-23T01:02:40.884Z,2.10
2019-02-23T01:05:08.648Z,2.10
2019-02-23T01:07:36.282Z,2.10
2019-02-23T01:10:04.367Z,2.10
2019-02-23T01:12:33.283Z,2.00
2019-02-23T01:15:00.916Z,2.10
2019-02-23T01:17:28.536Z,2.10
2019-02-23T01:19:56.255Z,2.00
2019-02-23T01:22:24.077Z,2.00
2019-02-23T01:24:51.715Z,2.00
2019-02-23T01:27:21.823Z,2.00
2019-02-23T01:29:50.539Z,2.00
2019-02-23T01:32:18.143Z,2.00
2019-02-23T01:34:46.099Z,1.90
2019-02-23T01:37:13.820Z,1.90
2019-02-23T01:39:41.607Z,1.90
2019-02-23T01:42:09.176Z,1.90
2019-02-23T01:44:36.819Z,1.90
2019-02-23T01:47:04.364Z,1.90
2019-02-23T01:49:31.839Z,1.90
2019-02-23T01:52:00.209Z,1.90
2019-02-23T01:54:28.127Z,1.90
2019-02-23T01:56:55.960Z,1.80
2019-02-23T01:59:24.561Z,1.80
2019-02-23T02:01:52.105Z,1.80
2019-02-23T02:04:19.536Z,1.80
2019-02-23T02:06:47.041Z,1.80
2019-02-23T02:09:14.539Z,1.80
2019-02-23T02:11:42.280Z,1.70
2019-02-23T02:14:10.027Z,1.70
2019-02-23T02:16:37.624Z,1.70
2019-02-23T02:19:05.211Z,1.70
2019-02-23T02:21:32.899Z,1.70
2019-02-23T02:24:00.434Z,1.70
2019-02-23T02:26:29.036Z,1.70
2019-02-23T02:28:56.586Z,1.70
2019-02-23T02:31:24.181Z,1.70
2019-02-23T02:34:06.990Z,1.60
2019-02-23T02:36:34.634Z,1.60
2019-02-23T02:39:02.743Z,1.60
2019-02-23T02:41:32.766Z,1.60
2019-02-23T02:44:00.351Z,1.50
2019-02-23T02:46:27.931Z,1.60
2019-02-23T02:48:55.427Z,1.60
2019-02-23T02:51:22.930Z,1.50
2019-02-23T02:53:50.519Z,1.50
2019-02-23T02:56:18.033Z,1.50
2019-02-23T02:58:45.960Z,1.50
2019-02-23T03:01:13.716Z,1.50
2019-02-23T03:03:41.255Z,1.40
2019-02-23T03:06:08.762Z,1.50
2019-02-23T03:08:36.226Z,1.40
2019-02-23T03:11:03.691Z,1.40
2019-02-23T03:13:31.163Z,1.40
2019-02-23T03:15:58.626Z,1.40
2019-02-23T03:18:26.219Z,1.40
2019-02-23T03:20:53.827Z,1.40
2019-02-23T03:23:22.723Z,1.40
2019-02-23T03:25:50.243Z,1.30
2019-02-23T03:28:17.807Z,1.30
2019-02-23T03:30:45.371Z,1.30
2019-02-23T03:33:12.899Z,1.30
2019-02-23T03:35:40.360Z,1.30
2019-02-23T03:38:07.858Z,1.30
2019-02-23T03:40:35.481Z,1.20
2019-02-23T03:43:03.121Z,1.20
2019-02-23T03:45:30.577Z,1.20
2019-02-23T03:47:58.135Z,1.20
2019-02-23T03:50:26.018Z,1.20
2019-02-23T03:52:53.818Z,1.10
2019-02-23T03:55:21.363Z,1.10
2019-02-23T03:57:48.833Z,1.10
2019-02-23T04:00:16.248Z,1.10
2019-02-23T04:02:43.746Z,1.10
2019-02-23T04:05:11.307Z,1.10
2019-02-23T04:07:39.233Z,1.00
2019-02-23T04:10:06.931Z,1.00
2019-02-23T04:12:34.411Z,1.00
2019-02-23T04:15:01.930Z,1.00
2019-02-23T04:17:30.837Z,1.00
2019-02-23T04:19:58.524Z,0.90
2019-02-23T04:22:26.190Z,0.90
2019-02-23T04:24:53.850Z,0.90
2019-02-23T04:27:21.656Z,0.90
2019-02-23T04:29:49.239Z,0.90
2019-02-23T04:32:16.790Z,0.90
2019-02-23T04:34:44.305Z,0.90
2019-02-23T04:37:11.739Z,0.80
2019-02-23T04:39:39.282Z,0.80
2019-02-23T04:42:06.920Z,0.80
2019-02-23T04:44:34.490Z,0.80
2019-02-23T04:47:02.529Z,0.80
2019-02-23T04:49:30.074Z,0.90
2019-02-23T04:51:57.547Z,0.90
2019-02-23T04:54:24.993Z,0.80
2019-02-23T04:56:52.417Z,0.80
2019-02-23T04:59:19.851Z,0.70
2019-02-23T05:01:47.799Z,0.80
2019-02-23T05:04:15.237Z,0.70
2019-02-23T05:06:42.857Z,0.70
2019-02-23T05:09:10.491Z,0.70
2019-02-23T05:11:38.095Z,0.70
2019-02-23T05:14:05.673Z,0.70
2019-02-23T05:16:33.509Z,0.60
2019-02-23T05:19:01.362Z,0.60
2019-02-23T05:21:29.223Z,0.60
2019-02-23T05:23:56.589Z,0.60
2019-02-23T05:26:24.123Z,0.60
2019-02-23T05:28:51.665Z,0.60
2019-02-23T05:31:22.031Z,0.60
2019-02-23T05:33:48.570Z,0.50
2019-02-23T05:36:16.266Z,0.50
2019-02-23T05:38:43.694Z,0.50
2019-02-23T05:41:12.244Z,0.50
2019-02-23T05:43:39.712Z,0.50
2019-02-23T05:46:07.267Z,0.50
2019-02-23T05:48:34.912Z,0.50
2019-02-23T05:51:03.625Z,0.40
2019-02-23T05:53:31.337Z,0.50
2019-02-23T05:55:58.900Z,0.40
2019-02-23T05:58:26.477Z,0.40
2019-02-23T06:00:54.051Z,0.40
2019-02-23T06:03:21.530Z,0.40
2019-02-23T06:05:49.149Z,0.30
2019-02-23T06:08:16.567Z,0.30
2019-02-23T06:10:44.885Z,0.30
2019-02-23T06:13:12.579Z,0.30
2019-02-23T06:15:40.135Z,0.30
2019-02-23T06:18:07.730Z,0.30
2019-02-23T06:20:35.318Z,0.30
2019-02-23T06:23:02.996Z,0.30
2019-02-23T06:25:32.663Z,0.20
2019-02-23T06:28:00.151Z,0.20
2019-02-23T06:30:27.658Z,0.20
2019-02-23T06:32:55.127Z,0.20
2019-02-23T06:35:22.659Z,0.20
2019-02-23T06:37:50.062Z,0.20
2019-02-23T06:40:17.659Z,0.20
2019-02-23T06:42:45.527Z,0.20
2019-02-23T06:45:13.039Z,0.20
2019-02-23T06:47:40.582Z,0.20
2019-02-23T06:50:08.099Z,0.20
2019-02-23T06:52:35.772Z,0.20
2019-02-23T06:55:03.362Z,0.20
2019-02-23T06:57:31.052Z,0.20
2019-02-23T06:59:58.769Z,0.30
2019-02-23T07:02:26.285Z,0.20
2019-02-23T07:04:53.604Z,0.30
2019-02-23T07:07:21.148Z,0.30
2019-02-23T07:09:48.675Z,0.30
2019-02-23T07:12:16.351Z,0.30
2019-02-23T07:14:43.954Z,0.40
2019-02-23T07:17:11.514Z,0.40
2019-02-23T07:19:39.078Z,0.40
2019-02-23T07:22:15.115Z,0.40
2019-02-23T07:24:37.359Z,0.40
2019-02-23T07:27:04.771Z,0.50
2019-02-23T07:29:32.552Z,0.50
2019-02-23T07:32:00.230Z,0.50
2019-02-23T07:34:27.760Z,0.60
2019-02-23T07:36:55.235Z,0.60
2019-02-23T07:39:22.751Z,0.70
2019-02-23T07:41:50.336Z,0.70
2019-02-23T07:44:18.128Z,0.80
2019-02-23T07:46:45.775Z,0.80
2019-02-23T07:49:13.691Z,0.90
2019-02-23T07:51:41.421Z,0.90
2019-02-23T07:54:08.987Z,1.00
2019-02-23T07:56:36.767Z,1.00
2019-02-23T07:59:04.319Z,1.10
2019-02-23T08:01:31.925Z,1.10
2019-02-23T08:03:59.654Z,1.20
2019-02-23T08:06:27.574Z,1.30
2019-02-23T08:08:55.049Z,1.40
2019-02-23T08:11:22.756Z,1.50
2019-02-23T08:13:50.336Z,1.60
2019-02-23T08:16:19.122Z,1.70
2019-02-23T08:18:46.998Z,1.90
2019-02-23T08:21:14.936Z,2.00
2019-02-23T08:23:42.500Z,2.10
2019-02-23T08:26:10.033Z,2.20
2019-02-23T08:28:37.470Z,2.40
2019-02-23T08:31:04.807Z,2.50
2019-02-23T08:33:32.455Z,2.50
2019-02-23T08:36:00.159Z,2.60
2019-02-23T08:38:27.857Z,2.70
2019-02-23T08:40:55.604Z,2.70
2019-02-23T08:43:23.190Z,2.80
2019-02-23T08:45:50.743Z,2.80
2019-02-23T08:48:18.506Z,2.90
2019-02-23T08:50:45.875Z,2.90
2019-02-23T08:53:13.564Z,3.00
2019-02-23T08:55:41.451Z,3.00
2019-02-23T08:58:09.380Z,3.10
2019-02-23T09:00:36.910Z,3.10
2019-02-23T09:03:04.435Z,3.10
2019-02-23T09:05:32.234Z,3.10
2019-02-23T09:07:59.886Z,3.10
2019-02-23T09:10:28.567Z,3.10
2019-02-23T09:12:56.360Z,3.20
2019-02-23T09:15:23.906Z,3.20
2019-02-23T09:17:51.537Z,3.20
2019-02-23T09:20:28.728Z,3.20
2019-02-23T09:22:59.536Z,3.20
2019-02-23T09:25:17.786Z,3.30
2019-02-23T09:27:45.439Z,3.30
2019-02-23T09:30:13.135Z,3.40
2019-02-23T09:32:40.908Z,3.40
2019-02-23T09:35:08.597Z,3.50
2019-02-23T09:37:36.200Z,3.50
2019-02-23T09:40:04.303Z,3.60
2019-02-23T09:42:31.819Z,3.60
2019-02-23T09:44:59.491Z,3.70
2019-02-23T09:47:27.316Z,3.70
2019-02-23T09:49:55.611Z,3.80
2019-02-23T09:52:23.608Z,3.80
2019-02-23T09:54:52.433Z,3.90
2019-02-23T09:57:20.033Z,3.90
2019-02-23T09:59:47.614Z,4.00
2019-02-23T10:02:15.171Z,4.10
2019-02-23T10:04:42.699Z,4.20
2019-02-23T10:07:10.158Z,4.20
2019-02-23T10:09:37.635Z,4.30
2019-02-23T10:12:05.468Z,4.40
2019-02-23T10:14:33.003Z,4.40
2019-02-23T10:17:00.354Z,4.50
2019-02-23T10:19:27.859Z,4.60
2019-02-23T10:21:56.792Z,4.70
2019-02-23T10:24:24.386Z,4.70
2019-02-23T10:26:51.926Z,4.80
2019-02-23T10:29:19.455Z,4.90
2019-02-23T10:31:46.970Z,4.90
2019-02-23T10:34:14.450Z,5.00
2019-02-23T10:36:41.933Z,5.10
2019-02-23T10:39:09.399Z,5.10
2019-02-23T10:41:37.292Z,5.20
2019-02-23T10:44:08.474Z,5.20
2019-02-23T10:46:35.930Z,5.30
2019-02-23T10:49:03.543Z,5.30
2019-02-23T10:51:30.972Z,5.40
2019-02-23T10:53:58.434Z,5.50
2019-02-23T10:56:26.061Z,5.50
2019-02-23T10:58:53.975Z,5.60
2019-02-23T11:01:21.459Z,5.60
2019-02-23T11:03:49.171Z,5.70
2019-02-23T11:06:16.542Z,5.70
2019-02-23T11:08:44.213Z,5.80
2019-02-23T11:11:11.703Z,5.80
2019-02-23T11:13:39.422Z,5.90
2019-02-23T11:16:07.017Z,5.90
2019-02-23T11:18:34.452Z,6.00
2019-02-23T11:21:02.919Z,6.00
2019-02-23T11:23:30.542Z,6.10
2019-02-23T11:25:58.051Z,6.10
2019-02-23T11:28:25.444Z,6.20
2019-02-23T11:30:53.040Z,6.20
2019-02-23T11:33:21.827Z,6.30
2019-02-23T11:35:49.301Z,6.30
2019-02-23T11:38:16.742Z,6.40
2019-02-23T11:40:44.534Z,6.40
2019-02-23T11:43:11.990Z,6.50
2019-02-23T11:45:39.676Z,6.50
2019-02-23T11:48:07.274Z,6.60
2019-02-23T11:50:34.715Z,6.60
2019-02-23T11:53:02.339Z,6.70
2019-02-23T11:55:30.058Z,6.70
2019-02-23T11:57:57.745Z,6.80
2019-02-23T12:00:25.186Z,6.80
2019-02-23T12:02:53.005Z,6.80
2019-02-23T12:05:20.658Z,6.80
2019-02-23T12:07:48.278Z,6.90
2019-02-23T12:10:15.771Z,6.90
2019-02-23T12:12:43.394Z,7.00
2019-02-23T12:15:11.260Z,7.10
2019-02-23T12:17:38.917Z,7.20
2019-02-23T12:20:06.581Z,7.30
2019-02-23T12:22:34.226Z,7.30
2019-02-23T12:25:01.730Z,7.40
2019-02-23T12:27:30.396Z,7.50
2019-02-23T12:29:58.016Z,7.50
2019-02-23T12:32:25.491Z,7.60
2019-02-23T12:34:53.919Z,7.70
2019-02-23T12:37:21.582Z,7.70
2019-02-23T12:39:49.087Z,7.70
2019-02-23T12:42:16.532Z,7.80
2019-02-23T12:44:45.247Z,7.80
2019-02-23T12:47:12.835Z,7.80
2019-02-23T12:49:40.358Z,7.90
2019-02-23T12:52:07.865Z,7.90
2019-02-23T12:54:35.525Z,8.00
2019-02-23T12:57:03.207Z,8.00
2019-02-23T12:59:30.828Z,8.10
2019-02-23T13:01:58.464Z,8.10
2019-02-23T13:04:25.905Z,8.10
2019-02-23T13:06:53.479Z,8.10
2019-02-23T13:09:23.317Z,8.10
2019-02-23T13:12:03.812Z,8.10
2019-02-23T13:14:55.779Z,8.10
2019-02-23T13:18:13.379Z,8.10
2019-02-23T13:21:12.084Z,8.20
2019-02-23T13:24:36.463Z,8.20
2019-02-23T13:27:12.111Z,8.30
2019-02-23T13:30:06.044Z,8.30
2019-02-23T13:33:01.650Z,8.40
2019-02-23T13:35:39.635Z,8.40
2019-02-23T13:38:21.101Z,8.50
2019-02-23T13:41:23.303Z,8.50
2019-02-23T13:44:19.489Z,8.50
2019-02-23T13:47:38.378Z,8.60
2019-02-23T13:50:39.529Z,8.60
2019-02-23T13:53:53.371Z,8.60
2019-02-23T13:57:26.881Z,8.70
2019-02-23T14:00:22.011Z,8.70
2019-02-23T14:03:28.967Z,8.70
2019-02-23T14:06:44.154Z,8.70
2019-02-23T14:09:34.388Z,8.80
2019-02-23T14:12:47.059Z,8.80
2019-02-23T14:16:12.582Z,8.80
2019-02-23T14:19:11.352Z,8.90
2019-02-23T14:22:11.597Z,8.90
2019-02-23T14:25:35.890Z,8.90
2019-02-23T14:28:31.865Z,9.00
2019-02-23T14:31:46.304Z,9.00
2019-02-23T14:34:38.837Z,9.10
2019-02-23T14:37:42.404Z,9.10
2019-02-23T14:40:50.450Z,9.10
2019-02-23T14:44:12.047Z,9.20
2019-02-23T14:47:07.921Z,9.20
2019-02-23T14:50:26.358Z,9.30
2019-02-23T14:53:36.408Z,9.30
2019-02-23T14:56:54.899Z,9.30
2019-02-23T15:00:16.743Z,9.30
2019-02-23T15:03:37.671Z,9.30
2019-02-23T15:06:50.335Z,9.20
2019-02-23T15:09:42.235Z,9.20
2019-02-23T15:13:16.019Z,9.20
2019-02-23T15:16:27.018Z,9.20
2019-02-23T15:19:45.295Z,9.20
2019-02-23T15:22:59.407Z,9.10
2019-02-23T15:26:11.514Z,9.10
2019-02-23T15:29:17.778Z,9.10
2019-02-23T15:32:19.511Z,9.10
2019-02-23T15:35:29.988Z,9.10
2019-02-23T15:38:45.095Z,9.10
2019-02-23T15:42:08.934Z,9.10
2019-02-23T15:45:27.249Z,9.00
2019-02-23T15:48:36.515Z,9.00
2019-02-23T15:51:04.129Z,9.00
2019-02-23T15:53:31.746Z,9.00
2019-02-23T15:55:59.158Z,9.00
2019-02-23T15:58:27.086Z,8.90
2019-02-23T16:00:55.303Z,8.90
2019-02-23T16:03:22.795Z,8.90
2019-02-23T16:05:50.373Z,8.90
2019-02-23T16:08:17.915Z,8.90
2019-02-23T16:10:45.607Z,8.90
2019-02-23T16:13:12.951Z,8.80
2019-02-23T16:15:40.745Z,8.80
2019-02-23T16:18:28.340Z,8.70
2019-02-23T16:20:57.692Z,8.70
2019-02-23T16:23:34.953Z,8.60
2019-02-23T16:25:54.793Z,8.50
2019-02-23T16:28:23.004Z,8.50
2019-02-23T16:30:50.594Z,8.40
2019-02-23T16:33:18.499Z,8.30
2019-02-23T16:35:46.036Z,8.30
2019-02-23T16:38:14.698Z,8.30
2019-02-23T16:40:42.195Z,8.20
2019-02-23T16:43:09.700Z,8.10
2019-02-23T16:45:37.241Z,8.10
2019-02-23T16:48:05.038Z,8.00
2019-02-23T16:50:32.572Z,7.90
2019-02-23T16:53:00.053Z,7.90
2019-02-23T16:55:27.635Z,7.80
2019-02-23T16:57:55.107Z,7.80
2019-02-23T17:00:22.921Z,7.70
2019-02-23T17:02:50.362Z,7.60
2019-02-23T17:05:18.157Z,7.60
2019-02-23T17:07:45.639Z,7.50
2019-02-23T17:10:13.122Z,7.50
2019-02-23T17:12:40.806Z,7.40
2019-02-23T17:15:10.653Z,7.40
2019-02-23T17:17:37.974Z,7.30
2019-02-23T17:20:05.974Z,7.20
2019-02-23T17:22:33.780Z,7.20
2019-02-23T17:25:01.375Z,7.10
2019-02-23T17:27:36.244Z,7.00
2019-02-23T17:29:59.622Z,7.00
2019-02-23T17:32:27.152Z,6.90
2019-02-23T17:34:54.522Z,6.90
2019-02-23T17:37:21.924Z,6.80
2019-02-23T17:39:49.437Z,6.70
2019-02-23T17:42:27.687Z,6.70
2019-02-23T17:44:46.489Z,6.60
2019-02-23T17:47:14.034Z,6.60
2019-02-23T17:49:41.629Z,6.50
2019-02-23T17:52:09.260Z,6.50
2019-02-23T17:54:37.028Z,6.40
2019-02-23T17:57:04.525Z,6.40
2019-02-23T17:59:32.016Z,6.30
2019-02-23T18:01:59.623Z,6.30
2019-02-23T18:04:27.258Z,6.20
2019-02-23T18:06:54.730Z,6.20
2019-02-23T18:09:22.204Z,6.10
2019-02-23T18:11:49.775Z,6.10
2019-02-23T18:14:17.486Z,6.00
2019-02-23T18:16:44.924Z,6.00
2019-02-23T18:19:12.378Z,6.00
2019-02-23T18:21:41.071Z,5.90
2019-02-23T18:24:09.839Z,5.90
2019-02-23T18:26:37.390Z,5.80
2019-02-23T18:29:05.065Z,5.80
2019-02-23T18:31:32.710Z,5.80
2019-02-23T18:34:00.427Z,5.80
2019-02-23T18:36:28.489Z,5.80
2019-02-23T18:38:56.000Z,5.70
2019-02-23T18:41:23.434Z,5.70
2019-02-23T18:43:50.806Z,5.70
2019-02-23T18:46:19.015Z,5.70
2019-02-23T18:48:46.706Z,5.60
2019-02-23T18:51:14.411Z,5.60
2019-02-23T18:53:42.278Z,5.60
2019-02-23T18:56:10.088Z,5.60
2019-02-23T18:58:37.705Z,5.50
2019-02-23T19:01:05.690Z,5.50
2019-02-23T19:03:33.321Z,5.50
2019-02-23T19:06:00.898Z,5.40
2019-02-23T19:08:28.558Z,5.40
2019-02-23T19:10:56.295Z,5.30
2019-02-23T19:13:23.840Z,5.30
2019-02-23T19:15:51.454Z,5.30
2019-02-23T19:18:19.059Z,5.30
2019-02-23T19:20:47.726Z,5.20
2019-02-23T19:23:16.430Z,5.20
2019-02-23T19:25:45.596Z,5.10
2019-02-23T19:28:13.309Z,5.10
2019-02-23T19:30:41.279Z,5.10
2019-02-23T19:33:08.942Z,5.10
2019-02-23T19:35:36.609Z,5.10
2019-02-23T19:38:04.308Z,5.00
2019-02-23T19:40:32.141Z,5.00
2019-02-23T19:42:59.767Z,5.00
2019-02-23T19:45:27.365Z,5.00
2019-02-23T19:47:55.112Z,4.90
2019-02-23T19:50:28.475Z,4.90
2019-02-23T19:52:56.018Z,4.90
2019-02-23T19:55:23.700Z,4.90
2019-02-23T19:57:51.299Z,4.90
2019-02-23T20:00:19.172Z,4.90
2019-02-23T20:02:46.913Z,4.80
2019-02-23T20:05:14.555Z,4.80
2019-02-23T20:07:42.343Z,4.80
2019-02-23T20:10:09.928Z,4.80
2019-02-23T20:12:39.205Z,4.70
2019-02-23T20:15:07.058Z,4.70
2019-02-23T20:17:34.714Z,4.70
2019-02-23T20:20:02.423Z,4.70
2019-02-23T20:22:30.514Z,4.60
2019-02-23T20:24:58.199Z,4.60
2019-02-23T20:27:25.875Z,4.60
2019-02-23T20:29:53.435Z,4.50
2019-02-23T20:32:23.233Z,4.50
2019-02-23T20:34:50.990Z,4.40
2019-02-23T20:37:18.477Z,4.40
2019-02-23T20:39:46.065Z,4.40
2019-02-23T20:42:13.674Z,4.40
2019-02-23T20:44:41.334Z,4.30
2019-02-23T20:47:10.054Z,4.30
2019-02-23T20:49:37.573Z,4.20
2019-02-23T20:52:05.756Z,4.20
2019-02-23T20:54:33.416Z,4.20
2019-02-23T20:57:05.243Z,4.20
2019-02-23T20:59:30.428Z,4.10
2019-02-23T21:01:59.478Z,4.10
2019-02-23T21:04:27.031Z,4.00
2019-02-23T21:06:54.537Z,4.00
2019-02-23T21:09:22.365Z,4.00
2019-02-23T21:11:50.716Z,4.00
2019-02-23T21:14:19.113Z,4.00
2019-02-23T21:16:46.715Z,3.90
2019-02-23T21:19:14.260Z,3.90
2019-02-23T21:21:42.411Z,3.90
2019-02-23T21:24:10.089Z,3.90
2019-02-23T21:26:38.130Z,3.80
2019-02-23T21:29:05.616Z,3.80
2019-02-23T21:31:33.234Z,3.80
2019-02-23T21:34:00.670Z,3.70
2019-02-23T21:36:28.148Z,3.70
2019-02-23T21:38:55.769Z,3.70
2019-02-23T21:41:23.334Z,3.70
2019-02-23T21:43:50.931Z,3.70
2019-02-23T21:46:18.628Z,3.60
2019-02-23T21:48:46.529Z,3.60
2019-02-23T21:51:14.389Z,3.60
2019-02-23T21:53:42.094Z,3.60
2019-02-23T21:56:09.820Z,3.50
2019-02-23T21:58:37.537Z,3.50
2019-02-23T22:01:05.406Z,3.50
2019-02-23T22:03:33.430Z,3.50
2019-02-23T22:06:01.064Z,3.50
2019-02-23T22:08:28.805Z,3.50
2019-02-23T22:10:56.341Z,3.50
2019-02-23T22:13:23.954Z,3.40
2019-02-23T22:15:51.593Z,3.40
2019-02-23T22:18:19.145Z,3.40
2019-02-23T22:20:47.080Z,3.40
2019-02-23T22:23:16.745Z,3.40
2019-02-23T22:25:47.216Z,3.40
2019-02-23T22:28:15.545Z,3.40
2019-02-23T22:30:43.212Z,3.30
2019-02-23T22:33:10.794Z,3.30
2019-02-23T22:35:38.323Z,3.30
2019-02-23T22:38:06.667Z,3.30
2019-02-23T22:40:34.181Z,3.30
2019-02-23T22:43:01.888Z,3.30
2019-02-23T22:45:29.994Z,3.30
2019-02-23T22:47:57.581Z,3.20
2019-02-23T22:50:25.113Z,3.20
2019-02-23T22:52:52.721Z,3.20
2019-02-23T22:55:21.165Z,3.20
2019-02-23T22:57:49.056Z,3.20
2019-02-23T23:00:23.025Z,3.10
2019-02-23T23:02:52.479Z,3.10
2019-02-23T23:05:20.089Z,3.10
2019-02-23T23:07:48.004Z,3.10
2019-02-23T23:10:15.778Z,3.10
2019-02-23T23:12:43.391Z,3.10
2019-02-23T23:15:10.902Z,3.10
2019-02-23T23:17:38.423Z,3.00
2019-02-23T23:20:06.195Z,3.00
2019-02-23T23:22:33.652Z,3.00
2019-02-23T23:25:01.284Z,3.00
2019-02-23T23:27:28.981Z,3.00
2019-02-23T23:29:56.770Z,2.90
2019-02-23T23:32:24.332Z,2.90
2019-02-23T23:34:52.094Z,2.90
2019-02-23T23:37:19.809Z,2.90
2019-02-23T23:39:47.307Z,2.80
2019-02-23T23:42:14.965Z,2.80
2019-02-23T23:44:42.713Z,2.80
2019-02-23T23:47:10.672Z,2.80
2019-02-23T23:49:38.348Z,2.70
2019-02-23T23:52:06.073Z,2.70
2019-02-23T23:54:33.628Z,2.70
2019-02-23T23:57:01.366Z,2.60
2019-02-23T23:59:28.950Z,2.60
